createdAt,value
2023-04-10T00:00:18.839Z,72.70
2023-04-10T00:03:32.365Z,67.10
2023-04-10T00:06:10.953Z,63.20
2023-04-10T00:08:44.935Z,63.30
2023-04-10T00:11:16.050Z,64.30
2023-04-10T00:13:48.965Z,62.60
2023-04-10T00:16:20.561Z,64.40
2023-04-10T00:18:56.642Z,61.10
2023-04-10T00:21:31.720Z,65.90
2023-04-10T00:24:02.167Z,63.80
2023-04-10T00:26:37.535Z,62.60
2023-04-10T00:29:13.240Z,64.70
2023-04-10T00:31:49.437Z,67.90
2023-04-10T00:34:30.001Z,68.30
2023-04-10T00:37:00.304Z,65.70
2023-04-10T00:39:40.843Z,62.60
2023-04-10T00:42:11.617Z,63.90
2023-04-10T00:44:47.873Z,63.60
2023-04-10T00:47:24.371Z,64.90
2023-04-10T00:49:59.708Z,61.10
2023-04-10T00:52:38.478Z,58.90
2023-04-10T00:55:12.469Z,58.20
2023-04-10T00:57:51.345Z,58.50
2023-04-10T01:00:24.112Z,57.50
2023-04-10T01:02:58.733Z,57.50
2023-04-10T01:06:09.316Z,56.70
2023-04-10T01:09:03.394Z,54.70
2023-04-10T01:12:08.185Z,55.50
2023-04-10T01:15:13.611Z,53.80
2023-04-10T01:18:09.622Z,53.80
2023-04-10T01:20:43.522Z,52.20
2023-04-10T01:23:25.934Z,51.70
2023-04-10T01:26:12.120Z,50.70
2023-04-10T01:29:23.126Z,53.10
2023-04-10T01:31:58.570Z,54.30
2023-04-10T01:34:48.480Z,56.30
2023-04-10T01:37:30.213Z,57.30
2023-04-10T01:40:10.838Z,56.20
2023-04-10T01:42:52.205Z,63.70
2023-04-10T01:45:34.141Z,65.80
2023-04-10T01:48:07.475Z,64.70
2023-04-10T01:50:43.960Z,65.90
2023-04-10T01:53:27.008Z,61.60
2023-04-10T01:56:11.123Z,63.00
2023-04-10T01:58:58.005Z,63.60
2023-04-10T02:01:37.058Z,66.80
2023-04-10T02:04:29.432Z,65.70
2023-04-10T02:07:15.949Z,62.70
2023-04-10T02:10:05.055Z,66.00
2023-04-10T02:13:03.981Z,67.40
2023-04-10T02:15:46.054Z,68.80
2023-04-10T02:18:35.686Z,67.80
2023-04-10T02:21:16.542Z,70.50
2023-04-10T02:23:53.439Z,68.60
2023-04-10T02:26:46.145Z,64.40
2023-04-10T02:29:26.747Z,59.90
2023-04-10T02:32:10.769Z,55.50
2023-04-10T02:35:04.214Z,53.90
2023-04-10T02:37:49.618Z,55.30
2023-04-10T02:40:25.426Z,53.80
2023-04-10T02:43:20.258Z,61.70
2023-04-10T02:45:54.149Z,62.70
2023-04-10T02:48:28.530Z,63.30
2023-04-10T02:51:10.647Z,68.40
2023-04-10T02:53:49.125Z,67.00
2023-04-10T02:56:38.303Z,66.20
2023-04-10T02:59:15.289Z,66.30
2023-04-10T03:01:56.971Z,68.10
2023-04-10T03:04:32.582Z,61.80
2023-04-10T03:07:27.059Z,69.40
2023-04-10T03:10:03.007Z,69.80
2023-04-10T03:12:45.518Z,66.70
2023-04-10T03:15:18.392Z,64.30
2023-04-10T03:17:48.878Z,60.30
2023-04-10T03:20:23.474Z,56.40
2023-04-10T03:23:10.999Z,59.90
2023-04-10T03:25:58.730Z,60.30
2023-04-10T03:28:42.497Z,57.20
2023-04-10T03:31:26.039Z,57.70
2023-04-10T03:34:09.935Z,64.60
2023-04-10T03:36:40.896Z,65.50
2023-04-10T03:39:26.966Z,67.30
2023-04-10T03:42:04.936Z,65.70
2023-04-10T03:44:38.554Z,63.50
2023-04-10T03:47:38.038Z,63.00
2023-04-10T03:50:26.948Z,66.40
2023-04-10T03:53:13.220Z,66.80
2023-04-10T03:55:48.189Z,70.80
2023-04-10T03:58:27.850Z,71.00
2023-04-10T04:01:12.986Z,73.50
2023-04-10T04:04:07.795Z,76.70
2023-04-10T04:07:06.655Z,75.00
2023-04-10T04:09:56.551Z,74.30
2023-04-10T04:12:50.211Z,74.00
2023-04-10T04:15:43.802Z,71.90
2023-04-10T04:18:43.538Z,70.30
2023-04-10T04:22:11.252Z,66.80
2023-04-10T04:25:15.224Z,69.90
2023-04-10T04:28:16.610Z,73.30
2023-04-10T04:31:26.305Z,73.50
2023-04-10T04:34:34.383Z,74.00
2023-04-10T04:37:41.046Z,73.70
2023-04-10T04:40:37.400Z,73.40
2023-04-10T04:43:37.450Z,72.10
2023-04-10T04:46:35.581Z,70.30
2023-04-10T04:49:30.436Z,71.90
2023-04-10T04:52:45.526Z,66.90
2023-04-10T04:55:35.125Z,67.20
2023-04-10T04:58:18.671Z,69.00
2023-04-10T05:01:13.493Z,72.30
2023-04-10T05:04:23.209Z,69.50
2023-04-10T05:07:19.918Z,70.70
2023-04-10T05:10:08.989Z,69.60
2023-04-10T05:13:56.516Z,74.40
2023-04-10T05:16:54.827Z,72.30
2023-04-10T05:19:43.746Z,72.70
2023-04-10T05:22:23.562Z,75.60
2023-04-10T05:25:20.357Z,80.00
2023-04-10T05:28:08.077Z,76.80
2023-04-10T05:30:59.172Z,76.30
2023-04-10T05:34:02.293Z,75.30
2023-04-10T05:36:38.790Z,72.50
2023-04-10T05:39:17.459Z,76.30
2023-04-10T05:42:14.312Z,72.70
2023-04-10T05:45:11.324Z,74.60
2023-04-10T05:48:02.802Z,75.80
2023-04-10T05:50:55.325Z,75.20
2023-04-10T05:53:36.467Z,76.90
2023-04-10T05:56:27.701Z,76.30
2023-04-10T05:59:24.188Z,74.70
2023-04-10T06:02:07.172Z,72.40
2023-04-10T06:04:37.524Z,72.60
2023-04-10T06:07:12.681Z,73.30
2023-04-10T06:09:45.900Z,72.00
2023-04-10T06:12:20.353Z,73.10
2023-04-10T06:14:56.617Z,71.40
2023-04-10T06:17:42.274Z,70.90
2023-04-10T06:22:59.787Z,74.10
2023-04-10T06:25:41.332Z,74.70
2023-04-10T06:28:16.576Z,74.10
2023-04-10T06:30:51.140Z,72.50
2023-04-10T06:33:22.875Z,75.00
2023-04-10T06:35:53.725Z,75.20
2023-04-10T06:38:23.104Z,74.90
2023-04-10T06:40:53.244Z,74.90
2023-04-10T06:43:29.331Z,76.80
2023-04-10T06:45:59.061Z,85.50
2023-04-10T06:48:28.973Z,75.10
2023-04-10T06:51:01.111Z,79.80
2023-04-10T06:53:33.397Z,77.10
2023-04-10T06:56:06.907Z,78.00
2023-04-10T06:58:36.546Z,75.90
2023-04-10T07:01:06.304Z,73.50
2023-04-10T07:03:35.922Z,75.10
2023-04-10T07:06:12.421Z,72.20
2023-04-10T07:08:41.987Z,75.10
2023-04-10T07:11:11.430Z,75.60
2023-04-10T07:13:40.885Z,71.30
2023-04-10T07:16:11.293Z,71.90
2023-04-10T07:18:41.444Z,76.40
2023-04-10T07:21:14.761Z,74.20
2023-04-10T07:23:44.100Z,78.20
2023-04-10T07:26:13.508Z,79.00
2023-04-10T07:28:42.667Z,77.00
2023-04-10T07:31:12.572Z,79.10
2023-04-10T07:33:41.754Z,79.40
2023-04-10T07:36:11.731Z,78.40
2023-04-10T07:38:42.012Z,75.20
2023-04-10T07:41:12.494Z,72.60
2023-04-10T07:43:41.820Z,69.30
2023-04-10T07:46:11.387Z,69.10
2023-04-10T07:48:41.091Z,70.30
2023-04-10T07:51:11.218Z,72.20
2023-04-10T07:53:40.819Z,75.10
2023-04-10T07:56:17.401Z,75.80
2023-04-10T07:58:47.259Z,75.90
2023-04-10T08:01:16.868Z,69.20
2023-04-10T08:03:48.011Z,66.10
2023-04-10T08:06:17.569Z,65.80
2023-04-10T08:08:46.682Z,64.90
2023-04-10T08:11:35.221Z,67.70
2023-04-10T08:14:07.265Z,66.60
2023-04-10T08:16:38.738Z,69.50
2023-04-10T08:19:07.965Z,70.90
2023-04-10T08:21:37.095Z,73.20
2023-04-10T08:24:06.475Z,81.80
2023-04-10T08:26:35.768Z,71.40
2023-04-10T08:29:04.966Z,72.10
2023-04-10T08:31:37.977Z,74.60
2023-04-10T08:34:07.407Z,72.10
2023-04-10T08:36:36.546Z,73.50
2023-04-10T08:39:05.692Z,71.90
2023-04-10T08:41:34.998Z,74.90
2023-04-10T08:44:06.080Z,74.10
2023-04-10T08:46:37.764Z,68.00
2023-04-10T08:49:10.254Z,67.40
2023-04-10T08:51:56.725Z,69.00
2023-04-10T08:54:34.119Z,72.50
2023-04-10T08:57:06.267Z,70.10
2023-04-10T08:59:40.658Z,72.70
2023-04-10T09:02:10.125Z,74.00
2023-04-10T09:04:39.879Z,74.20
2023-04-10T09:07:09.236Z,73.70
2023-04-10T09:09:38.554Z,72.50
2023-04-10T09:12:07.871Z,70.50
2023-04-10T09:14:37.980Z,69.90
2023-04-10T09:17:24.785Z,71.40
2023-04-10T09:19:56.746Z,69.60
2023-04-10T09:25:03.981Z,67.50
2023-04-10T09:27:42.478Z,71.20
2023-04-10T09:30:32.479Z,68.10
2023-04-10T09:33:03.497Z,72.20
2023-04-10T09:38:19.973Z,70.50
2023-04-10T09:40:49.817Z,75.10
2023-04-10T09:43:26.518Z,71.90
2023-04-10T09:45:57.896Z,71.40
2023-04-10T09:48:28.129Z,76.90
2023-04-10T09:50:57.878Z,73.30
2023-04-10T09:53:27.626Z,73.90
2023-04-10T09:55:58.264Z,70.30
2023-04-10T09:58:28.327Z,77.60
2023-04-10T10:01:05.613Z,66.80
2023-04-10T10:03:35.427Z,60.90
2023-04-10T10:06:07.686Z,57.90
2023-04-10T10:08:37.825Z,57.20
2023-04-10T10:11:10.231Z,58.70
2023-04-10T10:13:52.504Z,57.40
2023-04-10T10:16:37.823Z,60.50
2023-04-10T10:19:30.259Z,59.60
2023-04-10T10:22:02.024Z,58.30
2023-04-10T10:24:34.145Z,56.70
2023-04-10T10:27:07.605Z,56.10
2023-04-10T10:29:39.947Z,180.40
2023-04-10T10:32:09.349Z,66.40
2023-04-10T10:34:42.273Z,52.90
2023-04-10T10:37:12.972Z,48.10
2023-04-10T10:40:13.554Z,50.60
2023-04-10T10:43:39.079Z,49.10
2023-04-10T10:46:17.917Z,50.60
2023-04-10T10:49:00.940Z,49.70
2023-04-10T10:51:51.245Z,49.90
2023-04-10T10:54:42.209Z,49.10
2023-04-10T10:57:49.914Z,49.30
2023-04-10T11:00:26.055Z,48.20
2023-04-10T11:03:13.234Z,45.20
2023-04-10T11:06:04.033Z,40.10
2023-04-10T11:08:33.693Z,42.00
2023-04-10T11:11:19.819Z,36.50
2023-04-10T11:13:52.337Z,41.20
2023-04-10T11:16:22.979Z,43.80
2023-04-10T11:19:02.798Z,44.10
2023-04-10T11:22:07.704Z,42.50
2023-04-10T11:24:58.836Z,42.50
2023-04-10T11:27:46.957Z,37.20
2023-04-10T11:30:35.289Z,33.20
2023-04-10T11:33:06.469Z,32.90
2023-04-10T11:35:35.924Z,33.40
2023-04-10T11:38:16.569Z,33.10
2023-04-10T11:40:58.452Z,33.30
2023-04-10T11:46:07.985Z,29.00
2023-04-10T11:48:38.058Z,27.80
2023-04-10T11:51:12.069Z,23.10
2023-04-10T11:53:42.860Z,26.30
2023-04-10T11:56:24.259Z,29.70
2023-04-10T12:01:26.311Z,25.90
2023-04-10T12:03:55.846Z,29.10
2023-04-10T12:06:25.850Z,28.40
2023-04-10T12:08:56.265Z,25.00
2023-04-10T12:11:31.879Z,23.40
2023-04-10T12:14:04.010Z,23.20
2023-04-10T12:16:44.310Z,20.50
2023-04-10T12:19:18.507Z,16.30
2023-04-10T12:21:59.270Z,16.60
2023-04-10T12:24:51.467Z,17.60
2023-04-10T12:27:38.035Z,16.80
2023-04-10T12:30:12.970Z,15.60
2023-04-10T12:32:53.873Z,16.20
2023-04-10T12:35:53.617Z,17.00
2023-04-10T12:38:43.576Z,16.40
2023-04-10T12:41:34.625Z,17.50
2023-04-10T12:44:14.700Z,18.00
2023-04-10T12:46:46.285Z,17.20
2023-04-10T12:49:26.409Z,18.20
2023-04-10T12:51:58.415Z,16.80
2023-04-10T12:54:37.692Z,16.90
2023-04-10T12:57:30.504Z,16.30
2023-04-10T13:00:11.277Z,16.90
2023-04-10T13:02:51.582Z,17.00
2023-04-10T13:05:38.069Z,17.70
2023-04-10T13:08:14.011Z,17.10
2023-04-10T13:11:06.322Z,17.20
2023-04-10T13:13:37.535Z,16.50
2023-04-10T13:16:13.018Z,17.00
2023-04-10T13:18:45.455Z,16.10
2023-04-10T13:21:27.284Z,17.50
2023-04-10T13:24:05.732Z,17.50
2023-04-10T13:26:35.995Z,17.50
2023-04-10T13:29:06.181Z,17.10
2023-04-10T13:31:36.244Z,16.60
2023-04-10T13:34:06.809Z,16.20
2023-04-10T13:36:39.563Z,16.60
2023-04-10T13:39:09.861Z,16.60
2023-04-10T13:41:42.065Z,17.30
2023-04-10T13:44:13.040Z,17.20
2023-04-10T13:46:43.446Z,17.20
2023-04-10T13:49:18.006Z,15.90
2023-04-10T13:51:48.735Z,17.70
2023-04-10T13:54:18.409Z,18.60
2023-04-10T13:56:48.329Z,16.50
2023-04-10T13:59:17.433Z,17.50
2023-04-10T14:01:47.778Z,18.70
2023-04-10T14:04:17.189Z,16.70
2023-04-10T14:06:48.581Z,18.20
2023-04-10T14:09:19.730Z,18.60
2023-04-10T14:11:51.884Z,17.00
2023-04-10T14:14:27.225Z,17.20
2023-04-10T14:16:57.220Z,17.70
2023-04-10T14:19:27.359Z,16.90
2023-04-10T14:21:57.319Z,17.00
2023-04-10T14:24:30.267Z,18.00
2023-04-10T14:27:02.218Z,16.80
2023-04-10T14:29:38.856Z,16.20
2023-04-10T14:32:13.379Z,18.50
2023-04-10T14:34:43.395Z,16.00
2023-04-10T14:37:15.436Z,15.20
2023-04-10T14:39:46.079Z,16.30
2023-04-10T14:42:17.499Z,14.40
2023-04-10T14:44:47.938Z,17.50
2023-04-10T14:47:22.526Z,16.00
2023-04-10T14:49:52.691Z,17.10
2023-04-10T14:52:25.388Z,14.10
2023-04-10T14:54:57.311Z,15.30
2023-04-10T14:57:43.091Z,16.30
2023-04-10T15:00:40.637Z,13.60
2023-04-10T15:03:23.097Z,13.80
2023-04-10T15:06:04.536Z,12.20
2023-04-10T15:08:44.810Z,17.10
2023-04-10T15:11:20.619Z,13.40
2023-04-10T15:13:59.169Z,12.70
2023-04-10T15:16:36.056Z,12.90
2023-04-10T15:19:11.219Z,12.30
2023-04-10T15:21:46.768Z,12.10
2023-04-10T15:24:17.094Z,14.20
2023-04-10T15:26:57.285Z,14.80
2023-04-10T15:29:32.503Z,18.40
2023-04-10T15:32:07.723Z,14.10
2023-04-10T15:34:40.443Z,13.20
2023-04-10T15:37:21.622Z,13.00
2023-04-10T15:39:57.937Z,13.60
2023-04-10T15:42:31.176Z,12.80
2023-04-10T15:45:05.677Z,12.70
2023-04-10T15:47:36.880Z,13.50
2023-04-10T15:50:09.085Z,13.40
2023-04-10T15:52:39.985Z,12.10
2023-04-10T15:55:09.577Z,12.70
2023-04-10T15:57:39.214Z,12.20
2023-04-10T16:00:11.214Z,15.70
2023-04-10T16:02:41.297Z,16.40
2023-04-10T16:05:13.934Z,18.10
2023-04-10T16:07:43.987Z,18.30
2023-04-10T16:10:15.188Z,15.80
2023-04-10T16:13:15.560Z,16.50
2023-04-10T16:15:47.574Z,16.20
2023-04-10T16:21:17.922Z,16.70
2023-04-10T16:23:51.279Z,15.60
2023-04-10T16:26:21.561Z,14.10
2023-04-10T16:28:51.710Z,15.10
2023-04-10T16:31:35.984Z,18.50
2023-04-10T16:34:09.223Z,16.00
2023-04-10T16:36:48.585Z,17.80
2023-04-10T16:39:24.917Z,16.70
2023-04-10T16:41:59.696Z,15.50
2023-04-10T16:44:30.260Z,15.80
2023-04-10T16:47:05.269Z,15.50
2023-04-10T16:49:35.489Z,15.20
2023-04-10T16:52:08.734Z,15.20
2023-04-10T16:54:42.047Z,15.30
2023-04-10T16:57:18.532Z,13.60
2023-04-10T17:00:00.624Z,13.10
2023-04-10T17:02:39.755Z,13.20
2023-04-10T17:05:15.750Z,12.80
2023-04-10T17:07:47.165Z,12.30
2023-04-10T17:10:20.198Z,14.00
2023-04-10T17:13:04.956Z,14.40
2023-04-10T17:15:36.256Z,16.70
2023-04-10T17:18:14.947Z,16.80
2023-04-10T17:20:48.360Z,16.60
2023-04-10T17:23:18.128Z,16.80
2023-04-10T17:25:48.030Z,17.60
2023-04-10T17:28:17.477Z,19.00
2023-04-10T17:30:48.490Z,19.10
2023-04-10T17:33:17.894Z,15.30
2023-04-10T17:35:47.126Z,16.30
2023-04-10T17:38:18.054Z,16.20
2023-04-10T17:40:47.519Z,18.00
2023-04-10T17:43:16.918Z,28.70
2023-04-10T17:45:48.328Z,21.10
2023-04-10T17:48:18.826Z,20.20
2023-04-10T17:50:49.549Z,19.30
2023-04-10T17:53:19.965Z,21.20
2023-04-10T17:55:50.181Z,21.20
2023-04-10T17:58:23.672Z,21.60
2023-04-10T18:01:03.523Z,25.90
2023-04-10T18:03:43.855Z,25.70
2023-04-10T18:06:16.633Z,26.10
2023-04-10T18:08:54.570Z,29.40
2023-04-10T18:11:48.879Z,29.50
2023-04-10T18:14:21.651Z,30.80
2023-04-10T18:16:56.008Z,38.20
2023-04-10T18:19:35.622Z,41.40
2023-04-10T18:22:10.702Z,43.30
2023-04-10T18:24:40.702Z,39.10
2023-04-10T18:27:10.214Z,38.50
2023-04-10T18:29:40.070Z,42.00
2023-04-10T18:32:09.295Z,45.60
2023-04-10T18:34:43.983Z,42.20
2023-04-10T18:37:36.506Z,40.00
2023-04-10T18:40:18.996Z,44.80
2023-04-10T18:46:34.718Z,51.00
2023-04-10T18:49:25.701Z,53.70
2023-04-10T18:52:26.136Z,49.40
2023-04-10T18:55:28.615Z,53.50
2023-04-10T18:58:37.577Z,55.90
2023-04-10T19:01:18.017Z,56.10
2023-04-10T19:03:56.082Z,54.50
2023-04-10T19:06:52.045Z,50.60
2023-04-10T19:09:58.113Z,54.10
2023-04-10T19:12:54.871Z,62.80
2023-04-10T19:15:40.122Z,67.00
2023-04-10T19:18:40.505Z,69.20
2023-04-10T19:21:40.306Z,76.90
2023-04-10T19:24:24.089Z,67.20
2023-04-10T19:27:26.987Z,64.50
2023-04-10T19:30:29.517Z,60.90
2023-04-10T19:33:08.303Z,60.80
2023-04-10T19:35:45.746Z,61.90
2023-04-10T19:38:31.498Z,64.00
2023-04-10T19:41:19.350Z,71.10
2023-04-10T19:44:25.066Z,76.30
2023-04-10T19:46:57.889Z,66.50
2023-04-10T19:49:51.087Z,68.30
2023-04-10T19:52:45.926Z,74.20
2023-04-10T19:55:52.045Z,74.80
2023-04-10T19:59:02.551Z,76.50
2023-04-10T20:02:33.363Z,74.00
2023-04-10T20:05:59.666Z,74.60
2023-04-10T20:08:53.375Z,80.30
2023-04-10T20:13:01.351Z,113.70
2023-04-10T20:20:21.455Z,92.90
2023-04-10T20:42:24.493Z,139.70
2023-04-10T20:44:58.763Z,178.10
2023-04-10T20:47:35.114Z,171.70
2023-04-10T20:50:21.676Z,171.90
2023-04-10T20:52:58.635Z,187.20
2023-04-10T20:55:30.755Z,172.70
2023-04-10T20:58:10.177Z,201.90
2023-04-10T21:00:45.743Z,184.60
2023-04-10T21:03:22.088Z,131.40
2023-04-10T21:05:59.667Z,160.90
2023-04-10T21:08:43.702Z,142.50
2023-04-10T21:11:20.275Z,139.10
2023-04-10T21:14:01.152Z,112.20
2023-04-10T21:16:48.144Z,114.60
2023-04-10T21:19:33.537Z,120.80
2023-04-10T21:22:17.080Z,118.30
2023-04-10T21:24:51.411Z,118.40
2023-04-10T21:27:30.469Z,118.30
2023-04-10T21:30:01.366Z,121.60
2023-04-10T21:32:43.978Z,111.50
2023-04-10T21:35:19.153Z,116.50
2023-04-10T21:38:01.389Z,109.70
2023-04-10T21:40:39.096Z,118.60
2023-04-10T21:43:22.904Z,118.20
2023-04-10T21:46:02.186Z,114.30
2023-04-10T21:49:04.534Z,115.70
2023-04-10T21:51:45.186Z,106.90
2023-04-10T21:54:21.422Z,114.00
2023-04-10T21:56:55.217Z,110.50
2023-04-10T21:59:33.782Z,111.80
2023-04-10T22:02:09.974Z,108.10
2023-04-10T22:04:53.799Z,108.70
2023-04-10T22:07:28.735Z,109.50
2023-04-10T22:10:12.921Z,107.20
2023-04-10T22:12:50.967Z,106.70
2023-04-10T22:15:28.481Z,106.10
2023-04-10T22:18:07.592Z,103.20
2023-04-10T22:20:48.838Z,103.00
2023-04-10T22:23:23.640Z,99.60
2023-04-10T22:26:01.525Z,102.40
2023-04-10T22:28:50.225Z,103.60
2023-04-10T22:31:33.114Z,96.80
2023-04-10T22:36:58.171Z,98.30
2023-04-10T22:39:38.740Z,100.90
2023-04-10T22:42:14.210Z,103.90
2023-04-10T22:45:17.277Z,97.40
2023-04-10T22:47:59.030Z,95.90
2023-04-10T22:50:39.408Z,147.80
2023-04-10T22:53:12.166Z,113.80
2023-04-10T22:55:42.472Z,99.50
2023-04-10T22:58:18.358Z,103.60
2023-04-10T23:01:00.448Z,101.40
2023-04-10T23:03:41.334Z,100.60
2023-04-10T23:06:26.443Z,93.50
2023-04-10T23:09:05.205Z,98.70
2023-04-10T23:11:45.714Z,100.80
2023-04-10T23:14:22.557Z,103.70
2023-04-10T23:17:03.000Z,110.20
2023-04-10T23:19:33.816Z,108.80
2023-04-10T23:22:12.999Z,112.20
2023-04-10T23:24:46.881Z,109.10
2023-04-10T23:27:29.339Z,111.20
2023-04-10T23:30:00.862Z,101.90
2023-04-10T23:32:31.026Z,105.10
2023-04-10T23:35:05.543Z,106.70
2023-04-10T23:37:58.129Z,103.20
2023-04-10T23:40:36.014Z,101.70
2023-04-10T23:43:19.402Z,101.20
2023-04-10T23:45:49.687Z,102.10
2023-04-10T23:48:24.713Z,101.90
2023-04-10T23:51:07.197Z,106.10
2023-04-10T23:53:42.768Z,104.40
2023-04-10T23:56:15.716Z,100.70
2023-04-10T23:58:46.151Z,102.10
